Time;durP1;ratioP1;P1;durP2;ratioP2;P2;SDS_P1;SDS_P2;PMS_P1;PMS_P2;Temp;Humidity;BMP_temperature;BMP_pressure;BME280_temperature;BME280_humidity;BME280_pressure;Samples;Min_cycle;Max_cycle;Signal;HPM_P1;HPM_P2
2020/12/09 00:03:40;;;;;;;35.63;21.60;;;;;;;5.62;71.62;100430.16;4934627;29;20148;-65
2020/12/09 00:06:07;;;;;;;40.58;22.63;;;;;;;5.44;71.31;100430.06;4934561;29;20180;-63
2020/12/09 00:08:34;;;;;;;34.45;22.10;;;;;;;5.33;72.29;100431.25;4933644;29;20048;-65
2020/12/09 00:11:01;;;;;;;37.38;22.55;;;;;;;5.41;71.89;100430.63;4934351;29;20052;-61
2020/12/09 00:17:51;;;;;;;33.33;18.92;;;;;;;5.48;72.31;100428.38;4978965;28;20046;-63
2020/12/09 00:20:19;;;;;;;31.48;18.75;;;;;;;5.28;72.13;100432.09;4977215;28;20046;-65
2020/12/09 00:22:46;;;;;;;34.35;19.35;;;;;;;5.47;72.09;100434.97;4993680;28;20502;-66
2020/12/09 00:25:14;;;;;;;32.75;20.33;;;;;;;5.57;71.35;100430.22;4994348;28;20528;-64
2020/12/09 00:27:41;;;;;;;34.55;19.90;;;;;;;5.35;71.68;100435.31;4976385;28;20046;-64
2020/12/09 00:30:09;;;;;;;31.45;19.73;;;;;;;5.50;71.60;100434.38;4994526;28;20055;-64
2020/12/09 00:32:36;;;;;;;35.17;19.85;;;;;;;5.28;72.12;100434.03;4993774;28;20054;-64
2020/12/09 00:35:05;;;;;;;34.35;19.98;;;;;;;5.01;72.83;100436.41;4993818;28;20054;-64
2020/12/09 00:37:33;;;;;;;34.80;20.80;;;;;;;5.17;72.83;100438.75;4993765;28;20042;-63
2020/12/09 00:40:01;;;;;;;31.75;19.08;;;;;;;5.20;72.38;100426.44;4993943;28;20062;-66
2020/12/09 00:42:31;;;;;;;33.10;19.85;;;;;;;4.86;73.60;100428.31;4996030;28;20138;-65
2020/12/09 00:44:58;;;;;;;33.05;21.10;;;;;;;4.88;73.94;100434.31;4997276;28;20490;-63
2020/12/09 00:47:25;;;;;;;32.85;20.15;;;;;;;5.00;73.01;100432.88;4994041;28;20160;-62
2020/12/09 00:50:03;;;;;;;30.80;20.35;;;;;;;5.35;72.20;100426.31;4977042;28;20050;-66
2020/12/09 00:52:31;;;;;;;33.17;19.60;;;;;;;5.55;71.10;100428.88;4976942;28;20047;-65
2020/12/09 00:54:58;;;;;;;33.80;20.63;;;;;;;5.70;70.58;100428.75;4977142;28;20494;-65
2020/12/09 00:57:25;;;;;;;35.78;20.05;;;;;;;5.41;70.77;100427.91;4993538;28;20069;-64
2020/12/09 00:59:52;;;;;;;31.98;20.60;;;;;;;5.53;71.13;100431.06;4992336;28;20058;-66
2020/12/09 01:02:22;;;;;;;42.25;25.23;;;;;;;5.17;72.05;100427.00;4976371;28;20054;-65
2020/12/09 01:04:51;;;;;;;42.63;25.48;;;;;;;5.35;71.73;100424.38;4976200;28;20498;-66
2020/12/09 01:07:19;;;;;;;44.10;28.48;;;;;;;5.20;71.39;100420.97;4993687;28;20078;-64
2020/12/09 01:09:47;;;;;;;46.17;27.95;;;;;;;5.34;71.69;100421.94;4993864;28;20057;-69
2020/12/09 01:12:14;;;;;;;44.60;27.02;;;;;;;5.00;72.86;100426.59;4993654;28;20054;-70
2020/12/09 01:19:08;;;;;;;41.03;25.20;;;;;;;4.82;73.12;100433.53;4995727;28;20046;-73
2020/12/09 01:21:35;;;;;;;44.40;26.48;;;;;;;4.59;74.06;100421.41;4994377;28;20053;-71
2020/12/09 01:24:02;;;;;;;40.97;25.02;;;;;;;4.69;74.17;100427.88;4993627;28;20058;-71
2020/12/09 01:26:29;;;;;;;43.33;26.48;;;;;;;4.70;73.32;100424.88;4993527;28;20053;-70
2020/12/09 01:28:56;;;;;;;43.30;25.88;;;;;;;4.68;73.58;100420.78;4993557;28;20050;-71
2020/12/09 01:31:23;;;;;;;41.67;25.83;;;;;;;4.62;73.58;100428.19;4994041;28;20038;-71
2020/12/09 01:33:51;;;;;;;43.10;26.13;;;;;;;4.71;73.87;100420.25;4993783;28;20054;-72
2020/12/09 01:36:22;;;;;;;42.08;25.98;;;;;;;4.73;73.17;100418.84;4976936;28;20069;-72
2020/12/09 01:38:50;;;;;;;40.28;25.33;;;;;;;4.80;73.26;100427.53;4993380;28;20054;-71
2020/12/09 01:41:18;;;;;;;43.47;26.67;;;;;;;5.08;72.23;100426.81;4993453;28;20482;-64
2020/12/09 01:43:46;;;;;;;49.00;27.30;;;;;;;4.81;72.67;100429.19;4993457;28;20054;-63
2020/12/09 01:46:27;;;;;;;44.28;26.58;;;;;;;4.82;72.74;100428.06;4993208;28;20390;-67
2020/12/09 01:48:55;;;;;;;44.63;26.02;;;;;;;5.00;72.21;100435.59;4993613;28;20058;-69
2020/12/09 01:51:26;;;;;;;45.65;26.40;;;;;;;5.43;70.89;100442.91;4975418;28;20054;-61
2020/12/09 01:53:55;;;;;;;47.92;26.98;;;;;;;5.41;70.72;100444.28;4993616;28;20054;-64
2020/12/09 01:56:23;;;;;;;38.70;24.60;;;;;;;5.28;70.82;100442.22;4993691;28;20379;-64
2020/12/09 01:58:51;;;;;;;39.85;24.13;;;;;;;5.20;70.92;100456.47;4993114;28;20055;-64
2020/12/09 02:01:20;;;;;;;42.42;24.55;;;;;;;5.23;71.25;100453.19;4996550;28;20059;-64
2020/12/09 02:03:48;;;;;;;38.42;23.17;;;;;;;5.38;71.05;100448.41;4996150;28;20046;-72
2020/12/09 02:06:16;;;;;;;37.05;23.42;;;;;;;5.31;70.68;100447.94;4997337;28;20054;-63
2020/12/09 02:08:43;;;;;;;38.03;22.98;;;;;;;5.18;71.14;100447.72;4997601;28;20058;-62
2020/12/09 02:11:10;;;;;;;36.75;22.55;;;;;;;5.22;71.13;100448.81;4997187;28;20057;-63
2020/12/09 02:13:42;;;;;;;34.78;21.77;;;;;;;5.21;71.16;100447.97;4996498;28;20351;-63
2020/12/09 02:16:09;;;;;;;33.35;21.45;;;;;;;5.57;70.33;100438.41;4997164;28;20490;-64
2020/12/09 02:18:36;;;;;;;32.85;20.33;;;;;;;5.26;70.38;100455.34;4979785;28;20057;-67
2020/12/09 02:21:03;;;;;;;34.30;20.52;;;;;;;4.98;71.00;100453.34;4980180;28;20058;-63
2020/12/09 02:23:31;;;;;;;29.08;18.73;;;;;;;4.85;72.39;100457.50;4997109;28;20402;-64
2020/12/09 02:25:58;;;;;;;31.58;19.95;;;;;;;5.19;71.50;100457.56;4996792;28;20050;-66
2020/12/09 02:28:25;;;;;;;32.70;19.58;;;;;;;5.23;70.96;100450.47;4996749;28;20054;-68
2020/12/09 02:30:51;;;;;;;28.52;18.77;;;;;;;5.27;70.71;100443.31;4995765;28;20053;-66
2020/12/09 02:33:18;;;;;;;28.05;17.40;;;;;;;5.18;71.08;100447.72;4979368;28;20051;-67
2020/12/09 02:35:45;;;;;;;34.00;17.30;;;;;;;5.25;71.17;100443.59;4996330;28;20058;-66
2020/12/09 02:38:12;;;;;;;32.53;17.15;;;;;;;5.14;70.91;100449.44;4996418;28;20402;-64
2020/12/09 02:40:39;;;;;;;30.20;16.60;;;;;;;5.19;70.56;100449.38;4996771;28;20069;-71
2020/12/09 02:43:06;;;;;;;25.75;15.32;;;;;;;5.20;71.12;100449.09;4996811;28;20054;-65
2020/12/09 02:45:33;;;;;;;27.98;14.77;;;;;;;5.38;69.96;100445.69;4995685;28;20057;-64
2020/12/09 02:48:00;;;;;;;23.88;13.98;;;;;;;5.77;68.88;100448.31;4996485;28;20042;-65
2020/12/09 02:50:27;;;;;;;27.23;14.98;;;;;;;5.39;69.01;100450.03;4996536;28;20054;-68
2020/12/09 02:52:53;;;;;;;21.75;12.55;;;;;;;4.99;71.31;100460.44;4996441;28;20398;-68
2020/12/09 02:55:20;;;;;;;21.27;13.05;;;;;;;5.03;70.86;100462.31;4995921;28;20131;-71
2020/12/09 02:57:48;;;;;;;20.00;12.85;;;;;;;5.21;70.81;100458.09;4996368;28;20486;-69
2020/12/09 03:04:42;;;;;;;19.75;12.07;;;;;;;5.20;70.75;100453.72;4996189;28;20399;-72
2020/12/09 03:07:10;;;;;;;19.52;11.82;;;;;;;4.68;72.13;100453.53;4996480;28;20054;-65
2020/12/09 03:09:37;;;;;;;20.83;13.25;;;;;;;4.38;73.00;100455.31;4995940;28;20046;-64
2020/12/09 03:12:04;;;;;;;19.23;12.13;;;;;;;4.78;72.83;100451.56;4978252;28;20061;-64
2020/12/09 03:14:30;;;;;;;21.63;12.80;;;;;;;4.77;72.45;100455.41;4996324;28;20070;-63
2020/12/09 03:16:57;;;;;;;20.58;12.70;;;;;;;4.93;71.69;100451.47;4995944;28;20046;-65
2020/12/09 03:19:24;;;;;;;23.83;14.60;;;;;;;4.93;71.89;100456.13;4995931;28;20082;-65
2020/12/09 03:21:51;;;;;;;25.02;14.07;;;;;;;4.89;71.67;100453.13;4995917;28;20061;-63
2020/12/09 03:24:18;;;;;;;23.20;14.85;;;;;;;4.95;71.38;100448.47;4996302;28;20051;-67
2020/12/09 03:26:45;;;;;;;24.30;14.30;;;;;;;4.71;72.16;100453.78;4996098;28;20054;-64
2020/12/09 03:29:12;;;;;;;21.95;13.65;;;;;;;4.78;72.33;100459.75;4995771;28;20054;-66
2020/12/09 03:31:38;;;;;;;22.98;13.98;;;;;;;4.57;72.51;100458.22;4995856;28;20050;-64
2020/12/09 03:34:07;;;;;;;28.08;15.95;;;;;;;4.38;72.90;100462.66;4995725;28;20398;-69
2020/12/09 03:36:34;;;;;;;29.92;17.80;;;;;;;4.34;73.29;100461.59;4995569;28;20054;-69
2020/12/09 03:39:00;;;;;;;29.80;17.77;;;;;;;4.55;73.20;100461.22;4994933;28;20058;-69
2020/12/09 03:41:27;;;;;;;32.45;19.33;;;;;;;4.39;72.70;100453.41;4995356;28;20050;-69
2020/12/09 03:43:54;;;;;;;34.03;20.42;;;;;;;4.31;72.64;100460.25;4994969;28;20072;-69
2020/12/09 03:46:21;;;;;;;39.08;21.75;;;;;;;4.01;73.95;100454.09;4995427;28;20050;-71
2020/12/09 03:48:48;;;;;;;34.05;22.05;;;;;;;3.94;73.78;100467.97;4995764;28;20046;-72
2020/12/09 03:51:15;;;;;;;34.15;21.38;;;;;;;3.74;74.73;100457.13;4997881;28;20065;-71
2020/12/09 03:53:45;;;;;;;31.80;21.23;;;;;;;3.90;74.03;100469.63;4995383;28;20077;-67
2020/12/09 03:56:12;;;;;;;39.28;23.20;;;;;;;3.61;74.68;100465.84;4977759;28;20387;-70
2020/12/09 03:58:39;;;;;;;42.35;23.10;;;;;;;3.67;74.96;100469.38;4994936;28;20050;-67
2020/12/09 04:01:06;;;;;;;38.60;22.98;;;;;;;3.76;74.50;100470.47;4995611;28;20058;-69
2020/12/09 04:03:33;;;;;;;39.88;23.33;;;;;;;3.84;73.63;100476.16;4994873;28;20054;-69
2020/12/09 04:06:00;;;;;;;40.75;23.83;;;;;;;3.84;73.65;100472.63;4994388;28;20065;-69
2020/12/09 04:08:27;;;;;;;43.80;23.98;;;;;;;3.77;74.03;100481.09;4994827;28;20046;-68
2020/12/09 04:10:54;;;;;;;38.53;24.00;;;;;;;3.62;74.08;100481.13;4993845;28;20062;-68
2020/12/09 04:13:21;;;;;;;40.58;23.58;;;;;;;3.57;74.31;100480.28;4994714;28;20051;-72
2020/12/09 04:20:17;;;;;;;39.60;23.00;;;;;;;3.55;74.20;100477.03;4994739;28;20386;-71
2020/12/09 04:22:44;;;;;;;38.33;23.77;;;;;;;3.90;73.49;100490.59;4994405;28;20406;-71
2020/12/09 04:25:13;;;;;;;41.75;23.80;;;;;;;3.64;73.43;100484.38;4995135;28;20375;-74
2020/12/09 04:27:40;;;;;;;37.58;24.10;;;;;;;3.61;73.92;100481.38;4994822;28;20077;-73
2020/12/09 04:34:37;;;;;;;34.53;21.80;;;;;;;3.58;74.47;100485.47;4995382;28;20038;-70
2020/12/09 04:37:04;;;;;;;36.83;21.67;;;;;;;3.41;74.52;100483.03;4978058;28;20069;-67
2020/12/09 04:39:32;;;;;;;40.15;23.20;;;;;;;3.24;74.79;100487.91;4995250;28;20050;-67
2020/12/09 04:41:59;;;;;;;38.42;21.70;;;;;;;3.35;74.97;100483.28;4995554;28;20042;-64
2020/12/09 04:49:17;;;;;;;35.40;21.23;;;;;;;3.42;73.67;100489.28;4994189;28;20054;-69
2020/12/09 04:52:09;;;;;;;35.53;20.98;;;;;;;3.33;75.16;100491.72;4994228;28;20061;-64
2020/12/09 04:54:40;;;;;;;34.60;20.38;;;;;;;3.49;74.30;100480.84;4994980;28;20489;-65
2020/12/09 04:57:19;;;;;;;36.58;20.98;;;;;;;3.35;74.84;100480.56;4977574;28;20050;-63
2020/12/09 04:59:59;;;;;;;31.65;20.00;;;;;;;3.46;75.07;100482.19;4996159;28;20394;-71
2020/12/09 05:02:53;;;;;;;34.08;19.45;;;;;;;3.60;74.39;100474.28;4994749;28;20053;-63
2020/12/09 05:05:24;;;;;;;36.05;19.65;;;;;;;3.69;74.11;100472.66;4974103;28;20059;-63
2020/12/09 05:07:54;;;;;;;29.23;19.40;;;;;;;3.80;73.90;100464.19;4972744;28;20054;-63
2020/12/09 05:10:23;;;;;;;28.98;19.08;;;;;;;3.72;73.47;100469.38;4957499;28;20058;-70
2020/12/09 05:12:52;;;;;;;34.85;19.52;;;;;;;3.53;73.82;100463.69;4972219;28;20050;-63
2020/12/09 05:15:21;;;;;;;33.80;19.90;;;;;;;3.11;75.19;100474.84;4971531;28;20053;-63
2020/12/09 05:18:10;;;;;;;34.08;20.85;;;;;;;3.35;74.84;100472.38;4972154;28;20050;-63
2020/12/09 05:20:39;;;;;;;37.20;21.20;;;;;;;3.34;74.46;100476.22;4972310;28;20498;-62
2020/12/09 05:23:08;;;;;;;38.95;23.20;;;;;;;3.18;74.52;100488.16;4972423;28;20051;-62
2020/12/09 05:25:39;;;;;;;40.75;24.52;;;;;;;2.97;75.03;100492.75;4972798;28;20058;-64
2020/12/09 05:28:06;;;;;;;36.97;23.13;;;;;;;3.09;74.99;100495.22;4971423;28;20206;-62
2020/12/09 05:30:47;;;;;;;38.67;23.90;;;;;;;2.84;75.45;100497.91;4972647;28;20074;-68
2020/12/09 05:33:17;;;;;;;38.30;23.65;;;;;;;3.24;73.96;100508.88;4972099;28;20073;-64
2020/12/09 05:35:57;;;;;;;43.80;23.52;;;;;;;3.10;74.36;100515.94;4971186;28;20055;-68
2020/12/09 05:38:25;;;;;;;41.47;23.27;;;;;;;2.96;74.83;100525.69;4972426;28;20050;-65
2020/12/09 05:40:53;;;;;;;39.30;23.95;;;;;;;2.83;74.62;100527.00;4972293;28;20065;-69
2020/12/09 05:43:21;;;;;;;38.40;22.48;;;;;;;2.69;75.58;100531.31;4991893;28;20055;-65
2020/12/09 05:45:48;;;;;;;37.90;22.80;;;;;;;2.73;75.50;100528.88;4993042;28;20054;-60
2020/12/09 05:48:24;;;;;;;38.28;22.73;;;;;;;2.90;74.82;100521.28;4993155;28;20058;-68
2020/12/09 05:50:58;;;;;;;39.72;23.55;;;;;;;2.81;75.49;100523.72;4992945;28;20057;-63
2020/12/09 05:53:27;;;;;;;42.03;24.10;;;;;;;2.67;75.88;100525.31;4975600;28;20066;-65
2020/12/09 05:56:12;;;;;;;36.95;22.88;;;;;;;2.68;75.88;100524.25;4992936;28;20138;-64
2020/12/09 05:58:43;;;;;;;39.63;23.70;;;;;;;2.68;75.08;100526.97;4993581;28;20414;-64
2020/12/09 06:01:11;;;;;;;40.35;24.02;;;;;;;2.84;74.75;100538.72;4993300;28;20050;-62
2020/12/09 06:03:40;;;;;;;41.70;26.25;;;;;;;2.79;74.77;100531.31;4993861;28;20046;-67
2020/12/09 06:06:19;;;;;;;44.78;23.27;;;;;;;2.92;74.74;100527.28;4993567;28;20102;-68
2020/12/09 06:08:57;;;;;;;40.28;24.52;;;;;;;2.74;74.93;100527.78;4975662;28;20046;-70
2020/12/09 06:11:30;;;;;;;40.70;24.20;;;;;;;2.57;75.36;100530.72;4993152;28;20046;-66
2020/12/09 06:13:58;;;;;;;40.45;24.95;;;;;;;2.70;75.32;100532.13;4993257;28;20054;-67
2020/12/09 06:16:25;;;;;;;39.92;23.40;;;;;;;2.80;74.78;100534.88;4993177;28;20057;-69
2020/12/09 06:18:53;;;;;;;40.22;23.55;;;;;;;2.87;74.09;100533.56;4992751;28;20055;-70
2020/12/09 06:21:21;;;;;;;45.22;23.95;;;;;;;2.87;74.48;100538.16;4975881;28;20058;-73
2020/12/09 06:23:49;;;;;;;37.08;23.10;;;;;;;3.03;74.04;100537.13;4993045;28;20478;-71
2020/12/09 06:26:16;;;;;;;38.80;23.77;;;;;;;2.96;73.88;100536.56;4992424;28;20077;-70
2020/12/09 06:28:49;;;;;;;35.58;22.30;;;;;;;3.01;74.15;100536.56;4993102;28;20382;-73
2020/12/09 06:31:19;;;;;;;40.40;22.83;;;;;;;3.15;73.69;100543.13;4993386;28;20065;-70
2020/12/09 06:33:48;;;;;;;38.03;22.52;;;;;;;3.24;73.08;100547.78;4975509;28;20054;-68
2020/12/09 06:36:16;;;;;;;33.22;22.15;;;;;;;2.86;73.95;100540.06;4993098;28;20054;-70
2020/12/09 06:39:03;;;;;;;40.25;23.02;;;;;;;3.03;74.33;100548.00;4992956;28;20054;-72
2020/12/09 06:42:02;;;;;;;36.80;21.50;;;;;;;3.26;73.51;100555.69;4988390;28;20046;-68
2020/12/09 06:44:30;;;;;;;;;;;;;;;2.82;74.37;100546.31;4952402;28;20466;-70
2020/12/09 06:46:58;;;;;;;37.28;20.20;;;;;;;2.76;75.21;100552.81;4953410;28;19922;-63
2020/12/09 06:49:28;;;;;;;37.70;22.70;;;;;;;2.75;75.27;100560.16;4955227;28;20446;-71
2020/12/09 06:51:59;;;;;;;34.22;21.80;;;;;;;2.87;75.23;100554.47;4954674;28;20075;-71
2020/12/09 06:54:43;;;;;;;35.55;21.73;;;;;;;2.84;75.62;100544.94;4957043;28;20423;-69
2020/12/09 06:57:23;;;;;;;33.28;21.05;;;;;;;3.00;74.68;100552.06;4955681;28;20067;-67
2020/12/09 07:04:07;;;;;;;40.10;21.02;;;;;;;3.13;74.39;100548.03;4955594;29;20066;-69
2020/12/09 07:06:34;;;;;;;36.30;21.58;;;;;;;3.14;74.27;100552.38;4955471;28;20564;-69
2020/12/09 07:09:01;;;;;;;37.33;22.50;;;;;;;2.87;75.41;100543.59;4954310;28;20051;-74
2020/12/09 07:11:28;;;;;;;38.08;21.77;;;;;;;3.00;74.86;100546.63;4955090;29;20055;-69
2020/12/09 07:14:05;;;;;;;41.22;22.15;;;;;;;2.82;74.89;100557.19;4954558;29;20059;-68
2020/12/09 07:16:33;;;;;;;43.08;23.30;;;;;;;2.89;75.20;100560.47;4954355;28;20078;-70
2020/12/09 07:19:00;;;;;;;39.22;23.05;;;;;;;2.96;74.54;100570.03;4949543;29;20047;-65
2020/12/09 07:21:29;;;;;;;44.72;21.98;;;;;;;3.08;74.35;100572.50;4969929;28;20074;-68
2020/12/09 07:23:58;;;;;;;35.97;22.02;;;;;;;2.98;74.29;100561.59;4995208;28;20042;-67
2020/12/09 07:26:25;;;;;;;37.70;21.02;;;;;;;2.98;74.61;100572.47;4994897;28;20062;-71
2020/12/09 07:28:52;;;;;;;42.17;22.02;;;;;;;2.89;75.10;100574.06;4995010;28;20508;-72
2020/12/09 07:31:19;;;;;;;35.78;22.30;;;;;;;2.99;74.96;100574.09;4995441;28;20065;-71
2020/12/09 07:33:45;;;;;;;36.15;20.95;;;;;;;2.96;74.71;100580.91;4995268;28;20057;-65
2020/12/09 07:36:12;;;;;;;38.58;22.15;;;;;;;2.94;75.03;100574.09;4976822;28;20070;-63
2020/12/09 07:38:44;;;;;;;35.50;20.83;;;;;;;2.83;75.51;100575.13;4994485;28;20051;-64
2020/12/09 07:41:11;;;;;;;34.17;20.48;;;;;;;3.19;74.43;100580.41;4993716;28;20046;-67
2020/12/09 07:43:38;;;;;;;36.67;20.88;;;;;;;3.22;74.33;100582.63;4993959;28;20057;-66
2020/12/09 07:46:05;;;;;;;36.83;21.45;;;;;;;3.23;73.97;100581.53;4977021;28;20054;-70
2020/12/09 07:48:33;;;;;;;36.22;19.95;;;;;;;3.18;74.00;100576.06;4994152;28;20047;-70
2020/12/09 07:51:01;;;;;;;40.10;20.25;;;;;;;3.26;73.82;100577.47;4994993;28;20053;-70
2020/12/09 07:53:28;;;;;;;40.70;21.80;;;;;;;3.40;73.47;100579.38;4994683;28;20054;-71
2020/12/09 07:55:58;;;;;;;33.90;20.85;;;;;;;3.28;74.03;100570.66;4993654;28;20066;-66
2020/12/09 07:58:25;;;;;;;36.67;21.02;;;;;;;3.18;74.19;100570.63;4992698;28;20125;-66
2020/12/09 08:00:55;;;;;;;37.67;21.40;;;;;;;3.15;74.50;100570.34;4960371;28;20466;-63
2020/12/09 08:03:23;;;;;;;36.33;20.15;;;;;;;3.28;74.33;100576.09;4993339;28;20046;-65
2020/12/09 08:05:51;;;;;;;53.08;21.98;;;;;;;3.12;74.55;100571.69;4993642;28;20405;-65
2020/12/09 08:08:20;;;;;;;39.92;20.35;;;;;;;3.25;74.21;100575.81;4993084;28;20055;-69
2020/12/09 08:10:48;;;;;;;40.17;21.25;;;;;;;3.34;74.06;100574.19;4994155;28;20196;-63
2020/12/09 08:13:22;;;;;;;36.80;20.10;;;;;;;3.32;74.07;100574.47;4993978;28;20058;-70
2020/12/09 08:16:08;;;;;;;34.83;20.15;;;;;;;3.68;73.30;100564.44;4993571;28;20046;-73
2020/12/09 08:18:42;;;;;;;38.35;21.20;;;;;;;3.38;73.79;100565.22;4993534;28;20478;-69
2020/12/09 08:21:10;;;;;;;33.97;19.95;;;;;;;3.40;73.75;100573.13;4993789;28;20050;-65
2020/12/09 08:23:42;;;;;;;41.83;21.42;;;;;;;3.58;73.63;100567.16;4976561;28;20050;-64
2020/12/09 08:26:10;;;;;;;41.67;19.70;;;;;;;3.82;72.91;100557.34;4993938;28;20050;-65
2020/12/09 08:28:37;;;;;;;44.72;21.13;;;;;;;3.67;72.85;100567.44;4994709;28;20394;-67
2020/12/09 08:31:14;;;;;;;37.00;21.20;;;;;;;3.76;73.08;100574.81;4976730;28;20065;-65
2020/12/09 08:33:41;;;;;;;33.40;19.80;;;;;;;3.73;73.39;100578.03;4993543;28;20054;-65
2020/12/09 08:36:18;;;;;;;47.70;20.90;;;;;;;3.86;73.15;100585.69;4987233;28;20418;-64
2020/12/09 08:38:50;;;;;;;38.85;20.48;;;;;;;3.91;73.08;100590.31;4994038;28;20069;-64
2020/12/09 08:41:35;;;;;;;41.45;19.08;;;;;;;3.88;73.37;100583.50;4975960;28;20478;-64
2020/12/09 08:44:07;;;;;;;40.03;19.58;;;;;;;3.92;73.25;100583.78;4992902;28;20050;-64
2020/12/09 08:46:36;;;;;;;44.75;19.58;;;;;;;4.07;72.41;100584.59;4992950;28;20057;-65
2020/12/09 08:49:05;;;;;;;38.42;18.88;;;;;;;3.75;72.88;100584.03;4976265;28;20043;-66
2020/12/09 08:51:39;;;;;;;38.53;19.25;;;;;;;3.95;73.06;100573.16;4993994;28;20049;-68
2020/12/09 08:54:13;;;;;;;34.30;18.48;;;;;;;3.99;72.89;100584.34;4992960;28;20046;-66
2020/12/09 08:56:45;;;;;;;34.42;19.15;;;;;;;3.78;73.35;100578.06;4987407;28;20402;-69
2020/12/09 08:59:15;;;;;;;33.25;19.17;;;;;;;3.78;73.76;100579.97;4992116;28;20065;-65
2020/12/09 09:01:43;;;;;;;35.55;20.02;;;;;;;3.97;73.83;100583.78;4990808;28;20054;-66
2020/12/09 09:04:13;;;;;;;43.97;19.33;;;;;;;4.05;73.20;100578.59;4975747;28;20046;-67
2020/12/09 09:06:40;;;;;;;29.43;17.30;;;;;;;4.21;73.11;100580.22;4991465;28;20054;-64
2020/12/09 09:09:07;;;;;;;28.75;18.60;;;;;;;4.12;73.21;100583.75;4992787;28;20065;-65
2020/12/09 09:11:34;;;;;;;33.45;18.08;;;;;;;4.11;73.49;100579.41;4994675;28;20057;-70
2020/12/09 09:14:01;;;;;;;35.03;17.77;;;;;;;4.28;72.98;100578.03;4975751;28;20042;-69
2020/12/09 09:16:28;;;;;;;37.33;18.45;;;;;;;4.34;73.01;100582.38;4991302;28;20061;-65
2020/12/09 09:18:55;;;;;;;30.48;17.98;;;;;;;4.34;72.79;100578.84;4991761;28;20486;-67
2020/12/09 09:21:22;;;;;;;31.38;16.60;;;;;;;4.51;72.93;100582.06;4991056;28;20061;-68
2020/12/09 09:23:48;;;;;;;30.90;17.45;;;;;;;4.37;73.06;100587.28;4992823;28;20081;-66
2020/12/09 09:26:19;;;;;;;30.70;17.52;;;;;;;4.50;73.02;100591.31;4991864;28;20058;-65
2020/12/09 09:28:47;;;;;;;28.73;16.83;;;;;;;4.22;73.46;100592.75;4992286;28;20386;-69
2020/12/09 09:31:15;;;;;;;24.77;16.75;;;;;;;4.49;73.09;100612.34;4992394;28;20081;-69
2020/12/09 09:33:44;;;;;;;30.75;16.55;;;;;;;4.65;71.97;100602.22;4975927;28;20053;-65
2020/12/09 09:36:20;;;;;;;32.70;16.73;;;;;;;4.63;72.29;100609.84;4991960;28;20066;-71
2020/12/09 09:38:47;;;;;;;30.77;16.70;;;;;;;4.84;72.27;100613.34;4992583;28;20053;-67
2020/12/09 09:41:16;;;;;;;29.98;16.50;;;;;;;5.00;71.55;100615.75;4992352;28;20434;-67
2020/12/09 09:43:43;;;;;;;25.48;16.80;;;;;;;4.74;71.99;100616.09;4992847;28;20049;-71
2020/12/09 09:46:11;;;;;;;28.67;17.00;;;;;;;4.86;72.02;100620.16;4992675;28;20057;-68
2020/12/09 09:53:18;;;;;;;30.98;16.60;;;;;;;4.80;72.98;100623.16;4992242;28;20050;-71
2020/12/09 09:55:45;;;;;;;30.33;16.80;;;;;;;5.25;71.90;100612.88;4992254;28;20057;-69
2020/12/09 09:58:13;;;;;;;25.85;17.45;;;;;;;5.58;70.52;100605.84;4992159;28;20061;-65
2020/12/09 10:00:43;;;;;;;25.63;17.35;;;;;;;5.48;70.21;100603.19;4991842;28;20053;-68
2020/12/09 10:03:09;;;;;;;32.03;17.10;;;;;;;5.39;70.59;100605.72;4991376;28;20058;-67
2020/12/09 10:05:36;;;;;;;27.65;16.05;;;;;;;5.15;71.63;100601.19;4992329;28;20054;-69
2020/12/09 10:08:03;;;;;;;28.52;15.63;;;;;;;5.38;71.51;100598.63;4992153;28;20076;-68
2020/12/09 10:10:33;;;;;;;;;;;;;;;5.24;71.91;100594.06;4977255;28;20057;-66
2020/12/09 10:13:01;;;;;;;27.08;15.00;;;;;;;5.34;71.49;100589.34;4993069;28;19922;-67
2020/12/09 10:15:28;;;;;;;24.92;14.70;;;;;;;5.34;71.49;100594.81;4993033;28;20536;-69
2020/12/09 10:17:55;;;;;;;23.52;14.27;;;;;;;5.65;69.92;100584.50;4992932;28;20065;-65
2020/12/09 10:20:22;;;;;;;21.35;13.63;;;;;;;5.77;70.15;100589.63;4992255;28;20069;-72
2020/12/09 10:22:49;;;;;;;24.27;13.88;;;;;;;5.64;70.35;100588.34;4996742;28;20058;-66
2020/12/09 10:25:17;;;;;;;23.77;14.52;;;;;;;5.40;70.39;100588.25;4996753;28;20057;-70
2020/12/09 10:27:47;;;;;;;26.90;15.50;;;;;;;5.33;70.69;100586.91;4995321;28;20062;-67
2020/12/09 10:30:14;;;;;;;24.67;15.20;;;;;;;5.33;70.84;100586.91;4996326;28;20049;-65
2020/12/09 10:32:41;;;;;;;27.33;15.48;;;;;;;5.25;70.63;100584.75;4996560;28;20061;-65
2020/12/09 10:35:09;;;;;;;24.27;16.50;;;;;;;5.24;71.16;100583.13;4997111;28;20054;-65
2020/12/09 10:37:36;;;;;;;26.05;16.25;;;;;;;5.28;70.91;100576.03;4997996;28;20070;-64
2020/12/09 10:40:03;;;;;;;26.50;15.25;;;;;;;5.33;71.12;100581.44;4996459;28;20065;-66
2020/12/09 10:42:29;;;;;;;24.77;15.38;;;;;;;5.48;70.27;100573.16;4996627;28;20054;-65
2020/12/09 10:44:56;;;;;;;25.60;16.33;;;;;;;5.59;70.43;100575.53;4978653;28;20057;-64
2020/12/09 10:47:30;;;;;;;25.52;15.55;;;;;;;5.66;70.21;100577.94;4978959;28;20061;-62
2020/12/09 10:49:57;;;;;;;27.30;15.20;;;;;;;6.21;69.97;100569.31;4995197;28;20054;-66
2020/12/09 10:52:24;;;;;;;37.85;22.55;;;;;;;5.83;69.38;100575.66;4995730;28;20047;-67
2020/12/09 10:54:53;;;;;;;38.15;22.77;;;;;;;5.80;69.82;100567.19;4978917;28;20057;-66
2020/12/09 10:57:20;;;;;;;44.03;24.45;;;;;;;5.80;69.82;100576.19;4996108;28;20486;-65
2020/12/09 10:59:47;;;;;;;33.05;18.88;;;;;;;5.67;70.26;100569.47;4996628;28;20050;-62
2020/12/09 11:02:14;;;;;;;53.45;24.92;;;;;;;5.77;70.12;100570.50;4995071;28;20050;-67
2020/12/09 11:04:41;;;;;;;41.75;24.58;;;;;;;5.78;69.96;100572.94;4996405;28;20077;-66
2020/12/09 11:07:11;;;;;;;39.75;22.40;;;;;;;5.65;71.51;100570.84;4997561;28;20058;-64
2020/12/09 11:09:40;;;;;;;26.33;17.02;;;;;;;5.65;71.24;100573.56;4998123;28;20513;-67
2020/12/09 11:12:09;;;;;;;31.45;19.38;;;;;;;5.85;70.98;100565.25;4980218;28;20050;-63
2020/12/09 11:14:36;;;;;;;29.83;18.80;;;;;;;5.72;71.87;100568.59;4978173;28;20087;-64
2020/12/09 11:17:04;;;;;;;27.65;16.70;;;;;;;5.70;72.11;100565.34;4997764;28;20047;-66
2020/12/09 11:24:07;;;;;;;32.58;19.38;;;;;;;5.53;72.95;100568.47;4996695;28;20058;-65
2020/12/09 11:26:36;;;;;;;38.63;20.75;;;;;;;5.55;72.57;100570.91;4994671;28;20061;-69
2020/12/09 11:29:03;;;;;;;29.00;19.20;;;;;;;5.80;72.51;100573.47;4962789;28;20070;-65
2020/12/09 11:31:30;;;;;;;29.65;19.13;;;;;;;5.90;71.65;100570.69;4994572;28;20057;-65
2020/12/09 11:33:57;;;;;;;31.38;18.67;;;;;;;5.58;72.45;100570.34;4992162;28;20057;-62
2020/12/09 11:36:25;;;;;;;29.27;17.83;;;;;;;5.60;72.73;100565.41;4994158;28;20402;-64
2020/12/09 11:38:53;;;;;;;28.35;18.27;;;;;;;5.52;73.32;100566.03;4992944;28;20541;-66
2020/12/09 11:41:24;;;;;;;27.80;17.63;;;;;;;5.40;73.82;100562.84;4993110;28;20046;-65
2020/12/09 11:43:54;;;;;;;28.88;18.10;;;;;;;5.67;73.17;100555.81;4991093;28;20478;-63
2020/12/09 11:46:25;;;;;;;23.45;15.95;;;;;;;5.56;73.00;100548.78;4993011;28;20486;-69
2020/12/09 11:48:53;;;;;;;27.75;15.90;;;;;;;5.46;73.18;100553.50;4994297;28;20054;-64
2020/12/09 11:51:20;;;;;;;23.70;15.82;;;;;;;5.44;73.09;100559.25;4960267;28;20054;-65
2020/12/09 11:53:50;;;;;;;23.75;16.25;;;;;;;5.37;73.00;100555.22;4993368;28;20513;-63
2020/12/09 11:56:25;;;;;;;26.13;14.77;;;;;;;5.24;72.98;100556.66;4994023;28;20050;-64
2020/12/09 11:58:53;;;;;;;21.98;15.13;;;;;;;5.52;72.56;100547.72;4994594;28;20390;-67
2020/12/09 12:01:21;;;;;;;20.83;14.52;;;;;;;5.50;71.95;100552.66;4977104;28;20050;-67
2020/12/09 12:03:48;;;;;;;20.67;14.40;;;;;;;5.61;71.77;100551.47;4994162;28;20062;-65
2020/12/09 12:06:27;;;;;;;23.13;16.20;;;;;;;5.37;73.04;100557.94;4976351;28;20046;-65
2020/12/09 12:08:55;;;;;;;27.83;15.98;;;;;;;5.58;72.33;100551.22;4993858;28;20054;-66